Polk Army Air Field Fort Polk US
ICAO: KPOE
IATA: POE
Category: Medium
Scheduled Services: No

Elevation: 330 ft
TransAlt. 18000 ft.

Airport Communications:
APP/DEP:123.7
ATIS:134.85
FLT FOLLOWING:123.7
GND:121.8
RANGE CON:40.95
MEDEVAC OPS:42.5
POE OPS:36.05
PMSV METRO:135
TWR:41.5

KPOE Zoom In..

Runways:

(A) RW 16 length 4109 ft width 125 ft
---- / hdg 158

(B) RW 34 length 4109 ft width 125 ft
---- / hdg 338

Location; KPOE
Day. 16 / Time. 17.58 Zulu
* Altimeter: 30.06
* Temperature: 32° c. 89.6°f.
* Wind from: 290° Speed 06 kn.
Dewpoint: 21° c.
Visibility: 9 Statute Miles.
Clouds: Clear (automated report).

KPOE 161758Z AUTO 29006KT 9SM CLR 32/21 A3006 RMK AO2 SLP177 T03200210 10325 20251 58005


Wind From 290°
Speed 06 kn.

 
 
jpsmedia.com for Web Design worldairports.se 2018   terms of use